Time;durP1;ratioP1;P1;durP2;ratioP2;P2;SDS_P1;SDS_P2;PMS_P1;PMS_P2;Temp;Humidity;BMP_temperature;BMP_pressure;BME280_temperature;BME280_humidity;BME280_pressure;Samples;Min_cycle;Max_cycle;Signal;HPM_P1;HPM_P2
2022/02/28 00:01:51;;;;;;;6.75;4.00;;;;;;;-0.39;63.52;101623.14;1649712;86;21073;-74
2022/02/28 00:04:19;;;;;;;7.47;4.03;;;;;;;-0.46;63.64;101620.23;1663429;85;21065;-75
2022/02/28 00:06:46;;;;;;;6.35;4.10;;;;;;;-0.52;63.68;101620.31;1701976;83;21085;-75
2022/02/28 00:09:14;;;;;;;6.67;3.95;;;;;;;-0.54;63.95;101616.03;1712955;83;21005;-74
2022/02/28 00:11:43;;;;;;;6.05;3.90;;;;;;;-0.55;64.05;101619.06;1712307;82;20985;-74
2022/02/28 00:14:10;;;;;;;7.55;4.08;;;;;;;-0.58;64.15;101621.67;1713279;83;21049;-74
2022/02/28 00:16:37;;;;;;;7.28;4.15;;;;;;;-0.63;64.27;101623.05;1713059;83;20878;-73
2022/02/28 00:19:04;;;;;;;8.45;4.70;;;;;;;-0.66;64.34;101620.95;1712861;82;21005;-75
2022/02/28 00:21:33;;;;;;;6.40;4.37;;;;;;;-0.70;64.45;101621.85;1713022;82;20962;-73
2022/02/28 00:24:00;;;;;;;6.40;4.50;;;;;;;-0.77;64.51;101618.50;1712951;82;22256;-73
2022/02/28 00:26:29;;;;;;;7.35;4.08;;;;;;;-0.80;64.64;101625.44;1713006;82;20937;-73
2022/02/28 00:28:59;;;;;;;6.83;4.22;;;;;;;-0.85;64.93;101626.81;1712092;82;21427;-74
2022/02/28 00:31:26;;;;;;;7.47;4.12;;;;;;;-0.88;65.13;101624.23;1677935;84;21013;-74
2022/02/28 00:33:56;;;;;;;8.08;4.53;;;;;;;-0.93;65.18;101619.12;1678345;84;20957;-74
2022/02/28 00:36:26;;;;;;;6.92;4.55;;;;;;;-0.94;65.24;101623.03;1678309;84;20949;-74
2022/02/28 00:38:53;;;;;;;5.60;4.00;;;;;;;-0.94;65.27;101617.41;1678375;84;20938;-74
2022/02/28 00:41:20;;;;;;;7.60;4.45;;;;;;;-0.96;65.35;101620.46;1676591;84;21456;-73
2022/02/28 00:43:48;;;;;;;6.67;3.98;;;;;;;-0.97;65.59;101617.42;1678392;85;21043;-73
2022/02/28 00:46:15;;;;;;;8.10;4.22;;;;;;;-0.95;65.77;101610.95;1653379;84;20968;-74
2022/02/28 00:48:42;;;;;;;8.65;4.60;;;;;;;-0.92;65.86;101609.16;1664362;85;21824;-73
2022/02/28 00:51:09;;;;;;;7.17;4.55;;;;;;;-0.90;65.92;101611.29;1665432;85;21506;-73
2022/02/28 00:53:36;;;;;;;7.72;4.62;;;;;;;-0.85;66.15;101606.06;1718338;83;20953;-74
2022/02/28 00:56:04;;;;;;;8.30;4.72;;;;;;;-0.83;66.12;101615.11;1718354;83;20978;-73
2022/02/28 00:58:31;;;;;;;8.65;4.12;;;;;;;-0.84;66.05;101617.30;1717624;83;20997;-74
2022/02/28 01:00:58;;;;;;;6.20;3.98;;;;;;;-0.85;65.98;101616.87;1658455;85;21820;-74
2022/02/28 01:03:26;;;;;;;6.85;4.50;;;;;;;-0.87;66.04;101615.57;1678275;85;20937;-73
2022/02/28 01:05:54;;;;;;;6.87;4.50;;;;;;;-0.88;66.11;101622.50;1680651;83;21071;-73
2022/02/28 01:08:22;;;;;;;6.12;4.00;;;;;;;-0.89;66.27;101615.59;1690967;83;21048;-72
2022/02/28 01:10:49;;;;;;;5.67;4.15;;;;;;;-0.87;66.50;101616.46;1713654;83;21025;-72
2022/02/28 01:13:17;;;;;;;8.40;4.20;;;;;;;-0.85;66.57;101607.80;1676520;85;22849;-73
2022/02/28 01:15:45;;;;;;;7.33;4.12;;;;;;;-0.88;66.56;101610.83;1712695;83;20961;-73
2022/02/28 01:18:12;;;;;;;6.00;3.98;;;;;;;-0.89;66.55;101601.33;1706377;84;20998;-73
2022/02/28 01:20:40;;;;;;;6.05;4.00;;;;;;;-0.90;66.56;101600.91;1682069;84;21053;-74
2022/02/28 01:23:07;;;;;;;8.15;4.20;;;;;;;-0.90;66.66;101614.33;1682220;85;20978;-74
2022/02/28 01:25:35;;;;;;;7.70;4.12;;;;;;;-0.89;66.71;101612.14;1683248;84;21787;-74
2022/02/28 01:28:02;;;;;;;7.00;3.92;;;;;;;-0.86;66.70;101616.02;1683005;84;21512;-74
2022/02/28 01:30:29;;;;;;;5.90;4.25;;;;;;;-0.84;66.82;101618.15;1683050;84;21047;-74
2022/02/28 01:32:57;;;;;;;5.83;3.60;;;;;;;-0.85;66.79;101607.36;1683038;85;21001;-74
2022/02/28 01:35:24;;;;;;;6.95;4.00;;;;;;;-0.86;66.78;101603.05;1684799;83;21040;-74
2022/02/28 01:37:52;;;;;;;5.12;3.25;;;;;;;-0.87;66.90;101600.01;1665500;84;22770;-74
2022/02/28 01:40:19;;;;;;;7.62;4.30;;;;;;;-0.88;67.01;101595.27;1659607;85;21040;-75
2022/02/28 01:42:48;;;;;;;5.92;3.80;;;;;;;-0.89;67.05;101599.17;1682170;85;20998;-75
2022/02/28 01:45:21;;;;;;;6.25;3.87;;;;;;;-0.92;67.01;101603.97;1650598;85;20972;-75
2022/02/28 01:47:47;;;;;;;7.42;3.72;;;;;;;-0.97;67.07;101599.70;1703357;82;20976;-74
2022/02/28 01:50:14;;;;;;;8.25;4.55;;;;;;;-0.99;67.13;101594.55;1649538;87;21745;-74
2022/02/28 01:52:42;;;;;;;5.97;3.70;;;;;;;-0.99;67.31;101606.66;1650975;86;21060;-75
2022/02/28 01:55:10;;;;;;;7.78;4.30;;;;;;;-0.98;67.32;101604.47;1651097;85;21068;-72
2022/02/28 01:57:37;;;;;;;4.47;3.17;;;;;;;-0.99;67.40;101604.06;1629025;86;20980;-72
2022/02/28 02:00:08;;;;;;;7.35;3.90;;;;;;;-0.97;67.57;101599.70;1648837;85;21348;-75
2022/02/28 02:02:37;;;;;;;;;;;;;;;-0.97;67.71;101599.27;1652667;86;21797;-75
2022/02/28 02:05:05;;;;;;;4.85;3.15;;;;;;;-0.97;67.68;101601.00;1683888;85;20150;-75
2022/02/28 02:07:32;;;;;;;4.62;3.83;;;;;;;-0.99;67.67;101593.69;1674540;84;21541;-75
2022/02/28 02:10:04;;;;;;;6.97;3.92;;;;;;;-0.99;67.73;101594.98;1685968;83;21009;-75
2022/02/28 02:12:33;;;;;;;6.72;4.15;;;;;;;-1.00;67.81;101601.91;1645593;85;21006;-75
2022/02/28 02:15:02;;;;;;;7.15;3.75;;;;;;;-1.01;67.84;101593.71;1708547;82;21821;-75
2022/02/28 02:17:29;;;;;;;8.20;4.50;;;;;;;-1.00;67.79;101599.31;1701450;84;21057;-75
2022/02/28 02:19:57;;;;;;;5.92;3.95;;;;;;;-1.01;67.94;101600.63;1706242;82;21009;-75
2022/02/28 02:22:24;;;;;;;8.00;4.25;;;;;;;-1.01;67.96;101601.93;1706162;84;20974;-75
2022/02/28 02:24:51;;;;;;;9.33;5.03;;;;;;;-1.00;68.04;101606.23;1706244;82;21013;-75
2022/02/28 02:27:20;;;;;;;9.13;4.42;;;;;;;-1.01;68.07;101600.19;1709305;83;21907;-75
2022/02/28 02:29:47;;;;;;;7.08;4.30;;;;;;;-1.03;68.06;101595.91;1713466;83;21368;-75
2022/02/28 02:32:17;;;;;;;7.00;4.28;;;;;;;-1.03;68.17;101604.55;1676040;85;21023;-76
2022/02/28 02:34:46;;;;;;;5.78;3.98;;;;;;;-1.05;68.25;101594.64;1712498;83;21006;-75
2022/02/28 02:37:13;;;;;;;6.30;4.05;;;;;;;-1.05;68.26;101596.37;1711333;83;21001;-75
2022/02/28 02:39:41;;;;;;;6.00;3.98;;;;;;;-1.04;68.25;101600.68;1712594;83;21782;-75
2022/02/28 02:42:08;;;;;;;4.65;3.55;;;;;;;-1.05;68.20;101597.23;1711986;83;21112;-75
2022/02/28 02:44:36;;;;;;;6.50;3.70;;;;;;;-1.07;68.20;101592.48;1711329;83;20998;-75
2022/02/28 02:47:03;;;;;;;5.83;3.92;;;;;;;-1.08;68.25;101589.91;1711216;83;20969;-75
2022/02/28 02:49:38;;;;;;;5.72;3.72;;;;;;;-1.08;68.19;101589.91;1676736;84;21024;-75
2022/02/28 02:52:06;;;;;;;7.00;3.67;;;;;;;-1.08;68.28;101580.83;1680759;85;22208;-75
2022/02/28 02:54:34;;;;;;;5.90;3.72;;;;;;;-1.08;68.36;101585.58;1714757;82;21010;-75
2022/02/28 02:57:01;;;;;;;5.55;3.70;;;;;;;-1.08;68.29;101589.91;1704156;83;20993;-72
2022/02/28 02:59:28;;;;;;;7.62;3.65;;;;;;;-1.09;68.30;101581.27;1714701;83;21044;-72
2022/02/28 03:01:55;;;;;;;6.05;3.58;;;;;;;-1.08;68.28;101580.83;1659097;84;21001;-74
2022/02/28 03:04:22;;;;;;;5.33;3.70;;;;;;;-1.08;68.29;101581.69;1651977;87;22179;-73
2022/02/28 03:06:49;;;;;;;4.58;3.42;;;;;;;-1.08;68.20;101572.61;1652350;86;21037;-75
2022/02/28 03:09:17;;;;;;;5.85;3.65;;;;;;;-1.09;68.20;101574.79;1654156;86;20949;-74
2022/02/28 03:11:45;;;;;;;6.00;3.80;;;;;;;-1.09;68.09;101570.05;1686975;84;21011;-73
2022/02/28 03:14:12;;;;;;;5.00;3.70;;;;;;;-1.10;68.09;101570.92;1686891;85;21013;-73
2022/02/28 03:16:40;;;;;;;6.58;3.90;;;;;;;-1.09;68.09;101566.16;1687813;85;22183;-74
2022/02/28 03:19:07;;;;;;;6.65;3.87;;;;;;;-1.08;68.05;101569.17;1712218;83;20911;-73
2022/02/28 03:21:37;;;;;;;6.00;3.55;;;;;;;-1.08;68.00;101573.05;1716364;83;20938;-73
2022/02/28 03:24:05;;;;;;;9.18;3.92;;;;;;;-1.10;68.03;101566.59;1704381;84;20918;-74
2022/02/28 03:26:32;;;;;;;5.25;3.60;;;;;;;-1.10;68.06;101565.30;1714410;83;21013;-74
2022/02/28 03:29:01;;;;;;;6.45;3.58;;;;;;;-1.12;68.06;101568.36;1715291;82;21860;-74
2022/02/28 03:31:28;;;;;;;7.08;3.72;;;;;;;-1.11;68.04;101576.99;1704806;83;20940;-74
2022/02/28 03:33:55;;;;;;;5.87;3.30;;;;;;;-1.13;68.07;101576.16;1678068;85;20961;-73
2022/02/28 03:36:22;;;;;;;7.05;3.67;;;;;;;-1.14;68.14;101566.67;1651991;85;20993;-73
2022/02/28 03:38:51;;;;;;;5.20;3.58;;;;;;;-1.14;68.11;101573.15;1651138;85;21008;-74
2022/02/28 03:41:18;;;;;;;7.55;3.60;;;;;;;-1.14;68.05;101566.67;1651019;85;21798;-74
2022/02/28 03:43:44;;;;;;;5.95;3.60;;;;;;;-1.14;68.01;101573.15;1650804;85;20960;-73
2022/02/28 03:46:13;;;;;;;5.45;3.50;;;;;;;-1.16;68.04;101567.95;1651212;86;20973;-74
2022/02/28 03:48:42;;;;;;;6.00;3.42;;;;;;;-1.19;68.11;101566.70;1647954;85;21016;-74
2022/02/28 03:51:11;;;;;;;5.22;3.45;;;;;;;-1.21;68.10;101560.69;1685485;83;21056;-75
2022/02/28 03:53:46;;;;;;;6.22;3.60;;;;;;;-1.22;68.17;101555.94;1654802;85;21658;-75
2022/02/28 03:56:13;;;;;;;8.03;3.80;;;;;;;-1.24;68.21;101562.03;1676342;85;20964;-73
2022/02/28 03:58:40;;;;;;;5.67;3.45;;;;;;;-1.24;68.21;101559.44;1678795;85;21029;-73
2022/02/28 04:01:07;;;;;;;5.85;3.60;;;;;;;-1.25;68.17;101561.17;1713010;83;21009;-73
2022/02/28 04:03:36;;;;;;;6.17;3.65;;;;;;;-1.25;68.10;101556.43;1677275;85;21013;-74
2022/02/28 04:06:03;;;;;;;9.05;3.98;;;;;;;-1.27;68.09;101557.72;1678480;85;21824;-75
2022/02/28 04:08:31;;;;;;;5.62;3.58;;;;;;;-1.29;68.04;101552.14;1706907;83;20958;-74
2022/02/28 04:10:58;;;;;;;5.35;3.42;;;;;;;-1.33;68.07;101551.33;1650088;86;21060;-74
2022/02/28 04:13:26;;;;;;;5.65;3.62;;;;;;;-1.32;68.13;101559.96;1651245;86;21391;-74
2022/02/28 04:15:55;;;;;;;8.90;4.03;;;;;;;-1.33;68.12;101565.59;1629887;86;20877;-74
2022/02/28 04:18:22;;;;;;;5.47;3.77;;;;;;;-1.34;68.17;101564.31;1648910;87;22813;-74
2022/02/28 04:20:53;;;;;;;5.37;3.67;;;;;;;-1.34;68.16;101561.72;1636883;85;21079;-74
2022/02/28 04:23:20;;;;;;;7.00;3.92;;;;;;;-1.33;68.18;101564.73;1712032;83;21009;-74
2022/02/28 04:25:47;;;;;;;6.08;4.00;;;;;;;-1.33;68.19;101568.62;1644199;85;20997;-74
2022/02/28 04:28:14;;;;;;;5.85;3.70;;;;;;;-1.33;68.17;101566.03;1710982;84;20962;-74
2022/02/28 04:30:41;;;;;;;4.75;3.33;;;;;;;-1.34;68.17;101575.98;1676406;84;22155;-74
2022/02/28 04:33:09;;;;;;;5.17;3.50;;;;;;;-1.36;68.26;101569.48;1678367;84;21024;-74
2022/02/28 04:35:37;;;;;;;9.15;3.85;;;;;;;-1.39;68.35;101578.60;1678432;85;21000;-74
2022/02/28 04:38:07;;;;;;;5.45;3.47;;;;;;;-1.41;68.41;101580.36;1678263;85;21439;-73
2022/02/28 04:40:35;;;;;;;5.97;3.42;;;;;;;-1.42;68.45;101577.34;1712171;83;20950;-74
2022/02/28 04:43:04;;;;;;;5.72;3.90;;;;;;;-1.47;68.61;101577.81;1665038;85;22230;-74
2022/02/28 04:45:31;;;;;;;6.58;3.58;;;;;;;-1.48;68.66;101587.33;1683008;83;21005;-73
2022/02/28 04:47:59;;;;;;;5.17;3.65;;;;;;;-1.47;68.62;101593.37;1686825;83;21044;-74
2022/02/28 04:50:45;;;;;;;7.00;3.92;;;;;;;-1.48;68.64;101595.10;1706882;84;20962;-74
2022/02/28 04:53:12;;;;;;;6.30;3.37;;;;;;;-1.49;68.67;101601.60;1706888;84;21547;-74
2022/02/28 04:55:39;;;;;;;8.63;4.03;;;;;;;-1.49;68.67;101608.08;1706841;84;21814;-74
2022/02/28 04:58:06;;;;;;;7.17;3.80;;;;;;;-1.49;68.76;101613.26;1700050;82;20997;-77
2022/02/28 05:00:47;;;;;;;5.05;3.20;;;;;;;-1.49;68.72;101621.03;1648268;85;20975;-78
2022/02/28 05:03:15;;;;;;;6.78;3.80;;;;;;;-1.48;68.75;101626.20;1650948;86;20974;-72
2022/02/28 05:05:44;;;;;;;5.97;3.30;;;;;;;-1.49;68.78;101618.00;1673381;84;21424;-72
2022/02/28 05:08:12;;;;;;;7.95;4.28;;;;;;;-1.48;68.78;101620.16;1656160;86;21826;-73
2022/02/28 05:10:39;;;;;;;4.85;3.50;;;;;;;-1.47;68.78;101624.45;1654592;86;21536;-74
2022/02/28 05:13:11;;;;;;;8.43;4.03;;;;;;;-1.47;68.79;101620.58;1690728;84;21026;-75
2022/02/28 05:15:37;;;;;;;6.62;4.30;;;;;;;-1.47;68.84;101626.61;1695167;84;21004;-75
2022/02/28 05:18:05;;;;;;;6.62;4.62;;;;;;;-1.46;68.83;101633.51;1710476;83;20962;-75
2022/02/28 05:20:33;;;;;;;7.70;3.95;;;;;;;-1.45;68.81;101631.78;1676249;85;21764;-74
2022/02/28 05:23:00;;;;;;;7.58;4.90;;;;;;;-1.41;68.76;101627.44;1676469;85;21005;-74
2022/02/28 05:25:27;;;;;;;9.48;4.87;;;;;;;-1.41;68.69;101629.59;1700511;84;21071;-75
2022/02/28 05:27:55;;;;;;;6.28;4.30;;;;;;;-1.38;68.65;101628.70;1677504;85;20996;-75
2022/02/28 05:30:22;;;;;;;9.63;5.55;;;;;;;-1.37;68.60;101627.38;1685348;83;21152;-75
2022/02/28 05:32:50;;;;;;;8.90;5.95;;;;;;;-1.34;68.51;101632.55;1688519;83;21827;-75
2022/02/28 05:35:22;;;;;;;10.93;5.40;;;;;;;-1.33;68.47;101625.20;1676673;84;21071;-75
2022/02/28 05:37:50;;;;;;;9.08;5.67;;;;;;;-1.28;68.41;101622.10;1676790;85;21495;-75
2022/02/28 05:40:18;;;;;;;10.85;5.60;;;;;;;-1.24;68.36;101624.24;1678524;85;21022;-75
2022/02/28 05:42:45;;;;;;;7.40;5.05;;;;;;;-1.23;68.18;101629.41;1678076;85;20969;-75
2022/02/28 05:45:12;;;;;;;6.65;5.30;;;;;;;-1.20;68.09;101634.55;1711389;82;22187;-75
2022/02/28 05:47:42;;;;;;;8.00;5.40;;;;;;;-1.18;67.98;101633.23;1710749;82;20994;-75
2022/02/28 05:50:11;;;;;;;8.30;5.17;;;;;;;-1.18;67.88;101634.09;1709915;83;20998;-76
2022/02/28 05:52:38;;;;;;;19.12;11.00;;;;;;;-1.16;67.77;101632.36;1678400;85;21005;-75
2022/02/28 05:55:07;;;;;;;10.48;6.87;;;;;;;-1.14;67.70;101625.86;1712061;83;20962;-75
2022/02/28 05:57:37;;;;;;;12.37;7.47;;;;;;;-1.09;67.75;101628.38;1711256;82;21390;-75
2022/02/28 06:00:07;;;;;;;11.30;6.67;;;;;;;-1.05;67.71;101629.64;1676220;85;20953;-76
2022/02/28 06:02:38;;;;;;;9.48;6.03;;;;;;;-1.01;67.64;101631.31;1676328;85;21056;-75
2022/02/28 06:05:07;;;;;;;14.63;7.78;;;;;;;-0.95;67.53;101621.31;1678097;85;21076;-75
2022/02/28 06:07:36;;;;;;;8.05;5.12;;;;;;;-0.91;67.45;101626.87;1672052;84;20949;-75
2022/02/28 06:10:04;;;;;;;10.82;5.67;;;;;;;-0.90;67.24;101624.70;1684001;84;21778;-75
2022/02/28 06:12:31;;;;;;;8.58;6.00;;;;;;;-0.89;67.18;101626.41;1683257;85;21005;-74
2022/02/28 06:14:58;;;;;;;8.90;5.75;;;;;;;-0.85;67.17;101628.55;1684536;85;21566;-74
2022/02/28 06:17:25;;;;;;;11.53;7.75;;;;;;;-0.83;67.11;101626.34;1682683;84;21034;-74
2022/02/28 06:19:52;;;;;;;14.50;7.25;;;;;;;-0.79;67.05;101620.67;1651512;86;20977;-74
2022/02/28 06:22:20;;;;;;;10.43;6.30;;;;;;;-0.75;66.90;101626.26;1645030;86;22416;-74
2022/02/28 06:24:48;;;;;;;8.55;5.30;;;;;;;-0.71;66.79;101628.78;1674976;83;20962;-74
2022/02/28 06:27:15;;;;;;;9.30;5.45;;;;;;;-0.67;66.68;101634.80;1683740;85;20974;-75
2022/02/28 06:29:43;;;;;;;8.20;5.20;;;;;;;-0.61;66.62;101636.86;1682961;84;21452;-73
2022/02/28 06:32:10;;;;;;;7.78;4.95;;;;;;;-0.54;66.45;101634.20;1648790;85;21036;-75
2022/02/28 06:34:39;;;;;;;9.03;5.53;;;;;;;-0.51;66.31;101637.59;1647436;86;21579;-75
2022/02/28 06:37:06;;;;;;;8.70;5.40;;;;;;;-0.46;66.20;101638.84;1664753;85;20966;-76
2022/02/28 06:39:33;;;;;;;9.80;5.87;;;;;;;-0.41;66.17;101645.67;1681177;83;21009;-76
2022/02/28 06:42:00;;;;;;;8.45;5.20;;;;;;;-0.35;66.18;101646.89;1667226;84;21045;-74
2022/02/28 06:44:28;;;;;;;10.32;5.78;;;;;;;-0.26;65.89;101639.86;1650967;86;20964;-74
2022/02/28 06:46:56;;;;;;;10.63;6.20;;;;;;;-0.23;65.64;101644.55;1683817;84;22664;-75
2022/02/28 06:49:22;;;;;;;13.20;7.62;;;;;;;-0.14;65.71;101639.67;1648984;87;21021;-75
2022/02/28 06:51:49;;;;;;;10.48;5.95;;;;;;;-0.03;65.65;101641.66;1659251;85;21009;-74
2022/02/28 06:54:16;;;;;;;7.85;5.47;;;;;;;0.07;65.52;101635.44;1713278;83;21456;-76
2022/02/28 06:56:43;;;;;;;8.88;5.08;;;;;;;0.12;65.00;101640.13;1712776;83;20953;-74
2022/02/28 06:59:10;;;;;;;9.45;6.40;;;;;;;0.10;64.69;101639.75;1710858;83;21816;-75
2022/02/28 07:01:38;;;;;;;8.20;5.25;;;;;;;0.12;64.67;101637.98;1711207;83;20989;-75
2022/02/28 07:04:07;;;;;;;6.90;4.83;;;;;;;0.13;64.46;101640.98;1710118;83;20946;-75
2022/02/28 07:06:35;;;;;;;8.43;4.95;;;;;;;0.13;64.01;101642.28;1713266;82;21384;-75
2022/02/28 07:09:02;;;;;;;8.85;5.22;;;;;;;0.10;63.96;101644.50;1712704;83;21013;-76
2022/02/28 07:11:29;;;;;;;15.08;8.60;;;;;;;0.16;63.90;101643.53;1654536;85;22685;-76
2022/02/28 07:13:56;;;;;;;12.85;7.10;;;;;;;0.24;63.86;101637.77;1675993;85;20958;-76
2022/02/28 07:16:24;;;;;;;8.33;5.45;;;;;;;0.34;63.93;101633.28;1675853;85;20985;-75
2022/02/28 07:18:52;;;;;;;10.32;6.15;;;;;;;0.45;63.70;101632.64;1678548;85;21508;-74
2022/02/28 07:21:19;;;;;;;9.13;5.25;;;;;;;0.47;63.28;101634.32;1712718;83;21052;-76
2022/02/28 07:23:46;;;;;;;6.72;4.75;;;;;;;0.44;62.89;101634.83;1713060;83;21874;-76
2022/02/28 07:26:13;;;;;;;7.12;5.00;;;;;;;0.41;62.89;101630.55;1712473;83;21476;-76
2022/02/28 07:28:40;;;;;;;8.73;4.80;;;;;;;0.48;62.98;101632.58;1712393;83;21388;-75
2022/02/28 07:31:07;;;;;;;6.35;4.70;;;;;;;0.54;62.49;101630.73;1712081;83;20998;-77
2022/02/28 07:33:34;;;;;;;7.97;4.50;;;;;;;0.61;62.47;101627.59;1693291;83;20990;-75
2022/02/28 07:36:01;;;;;;;7.83;4.67;;;;;;;0.63;61.99;101626.27;1683212;84;22608;-77
2022/02/28 07:38:28;;;;;;;8.13;5.20;;;;;;;0.65;61.96;101632.28;1683168;84;21013;-76
2022/02/28 07:40:55;;;;;;;6.55;4.45;;;;;;;0.72;61.74;101624.80;1682629;85;21548;-77
2022/02/28 07:43:22;;;;;;;6.72;4.55;;;;;;;0.81;61.78;101627.22;1704094;83;21428;-76
2022/02/28 07:45:49;;;;;;;6.83;4.40;;;;;;;0.90;61.65;101630.95;1701996;84;21056;-76
2022/02/28 07:48:18;;;;;;;6.35;4.37;;;;;;;0.97;61.03;101630.39;1702120;84;20994;-77
2022/02/28 07:50:45;;;;;;;10.93;4.20;;;;;;;1.01;60.81;101630.73;1681747;84;20961;-76
2022/02/28 07:53:12;;;;;;;8.25;4.35;;;;;;;1.02;60.61;101625.94;1712332;83;21013;-76
2022/02/28 07:55:38;;;;;;;7.28;4.25;;;;;;;1.04;60.23;101625.02;1712573;83;21557;-76
2022/02/28 07:58:05;;;;;;;6.75;4.22;;;;;;;1.06;60.26;101623.27;1713040;83;21002;-76
2022/02/28 08:00:33;;;;;;;6.35;4.08;;;;;;;1.12;60.32;101620.52;1711989;83;22602;-76
2022/02/28 08:03:00;;;;;;;5.47;4.05;;;;;;;1.23;60.16;101617.69;1712743;83;21009;-76
2022/02/28 08:05:27;;;;;;;5.92;4.03;;;;;;;1.29;59.94;101616.72;1712162;82;20954;-76
2022/02/28 08:07:55;;;;;;;6.42;3.72;;;;;;;1.34;59.83;101617.45;1712149;82;20958;-77
2022/02/28 08:10:22;;;;;;;5.85;3.58;;;;;;;1.40;59.67;101616.89;1712025;83;21096;-76
2022/02/28 08:12:50;;;;;;;5.45;3.75;;;;;;;1.50;59.32;101607.13;1712878;83;21813;-76
2022/02/28 08:15:17;;;;;;;6.47;3.70;;;;;;;1.51;58.97;101614.05;1713080;83;21389;-77
2022/02/28 08:17:45;;;;;;;5.87;3.55;;;;;;;1.59;59.18;101615.19;1712564;83;20957;-76
2022/02/28 08:20:12;;;;;;;5.62;3.27;;;;;;;1.68;58.72;101609.33;1713382;83;21014;-76
2022/02/28 08:22:39;;;;;;;5.60;3.22;;;;;;;1.71;58.59;101610.55;1712219;83;21036;-77
2022/02/28 08:25:07;;;;;;;7.58;4.40;;;;;;;1.82;58.67;101608.14;1709975;83;22820;-77
2022/02/28 08:27:35;;;;;;;5.67;3.30;;;;;;;1.92;58.57;101603.12;1712781;83;20990;-76
2022/02/28 08:30:03;;;;;;;4.17;2.95;;;;;;;2.02;57.77;101602.00;1712983;83;21010;-76
2022/02/28 08:32:30;;;;;;;4.97;3.20;;;;;;;2.05;57.28;101603.25;1711393;83;21045;-76
2022/02/28 08:34:59;;;;;;;3.80;2.90;;;;;;;2.09;57.36;101598.80;1712018;83;21377;-76
2022/02/28 08:37:26;;;;;;;5.22;3.12;;;;;;;2.17;57.47;101591.20;1711252;83;22914;-76
2022/02/28 08:39:53;;;;;;;4.70;2.98;;;;;;;2.28;57.18;101597.00;1710596;84;21002;-76
2022/02/28 08:42:20;;;;;;;4.20;2.70;;;;;;;2.33;56.56;101592.98;1710878;82;20982;-75
2022/02/28 08:44:47;;;;;;;5.55;3.33;;;;;;;2.34;56.65;101592.54;1712596;83;21006;-75
2022/02/28 08:47:14;;;;;;;5.08;2.70;;;;;;;2.38;56.46;101588.94;1711589;83;20950;-75
2022/02/28 08:49:41;;;;;;;5.65;2.90;;;;;;;2.43;56.55;101585.33;1692831;83;22460;-75
2022/02/28 08:52:08;;;;;;;5.15;2.70;;;;;;;2.57;56.20;101578.43;1691247;84;20939;-75
2022/02/28 08:54:35;;;;;;;5.10;2.60;;;;;;;2.68;56.33;101583.35;1681652;84;21002;-76
2022/02/28 08:57:03;;;;;;;6.28;2.90;;;;;;;2.85;56.32;101578.08;1682839;83;20998;-76
2022/02/28 08:59:31;;;;;;;5.47;2.65;;;;;;;2.95;54.92;101577.81;1683497;85;21516;-76
2022/02/28 09:01:58;;;;;;;5.28;2.45;;;;;;;2.93;54.90;101591.36;1683952;84;22271;-76
2022/02/28 09:04:25;;;;;;;5.42;2.65;;;;;;;2.97;54.85;101589.91;1705731;82;21021;-73
2022/02/28 09:06:53;;;;;;;3.85;2.50;;;;;;;3.02;54.74;101593.27;1697358;82;21014;-75
2022/02/28 09:09:20;;;;;;;5.12;2.40;;;;;;;3.02;54.17;101594.57;1649584;85;21117;-77
2022/02/28 09:11:47;;;;;;;4.83;2.58;;;;;;;2.88;54.22;101595.39;1699691;82;21025;-76
2022/02/28 09:14:14;;;;;;;3.55;2.42;;;;;;;2.86;54.58;101592.83;1695414;82;21845;-76
2022/02/28 09:16:41;;;;;;;3.47;2.40;;;;;;;3.01;54.80;101586.79;1704248;82;21005;-80
2022/02/28 09:19:08;;;;;;;4.78;2.65;;;;;;;3.12;54.21;101588.63;1696551;82;20997;-81
2022/02/28 09:21:36;;;;;;;5.10;2.80;;;;;;;3.15;54.09;101589.84;1698130;83;21273;-82
2022/02/28 09:24:04;;;;;;;5.47;2.50;;;;;;;3.16;53.83;101583.71;1700828;82;21033;-77
2022/02/28 09:26:31;;;;;;;4.87;2.42;;;;;;;3.24;53.98;101588.27;1673278;84;21847;-80
2022/02/28 09:28:58;;;;;;;4.03;2.40;;;;;;;3.32;53.77;101578.45;1675078;85;20971;-78
2022/02/28 09:31:25;;;;;;;4.33;2.40;;;;;;;3.43;53.72;101590.73;1696327;83;21492;-81
2022/02/28 09:33:52;;;;;;;4.12;2.10;;;;;;;3.49;53.38;101585.78;1682436;84;21006;-78
2022/02/28 09:36:20;;;;;;;2.77;2.00;;;;;;;3.47;51.84;101582.34;1700255;82;21088;-79
2022/02/28 09:38:47;;;;;;;3.75;2.37;;;;;;;3.39;52.34;101566.92;1707558;84;22244;-78
2022/02/28 09:41:14;;;;;;;4.08;2.50;;;;;;;3.40;52.41;101573.00;1682959;84;20965;-77
2022/02/28 09:44:00;;;;;;;3.42;2.08;;;;;;;3.42;52.65;101562.05;1669391;83;20993;-78
2022/02/28 09:46:35;;;;;;;3.72;2.42;;;;;;;3.61;52.75;101561.88;1695834;82;20977;-75
2022/02/28 09:49:11;;;;;;;3.25;2.10;;;;;;;3.73;52.48;101558.02;1643874;85;21150;-78
2022/02/28 09:51:56;;;;;;;3.85;2.10;;;;;;;3.77;51.61;101549.20;1654532;85;21873;-77
2022/02/28 09:54:33;;;;;;;3.50;2.12;;;;;;;3.78;51.08;101549.59;1654117;85;21038;-75
2022/02/28 09:57:02;;;;;;;5.12;2.00;;;;;;;3.87;50.68;101551.91;1692571;82;21467;-74
2022/02/28 09:59:36;;;;;;;3.15;2.08;;;;;;;3.90;50.04;101554.41;1657526;83;21125;-75
2022/02/28 10:02:05;;;;;;;3.70;2.50;;;;;;;3.94;50.26;101553.39;1699557;82;21496;-74
2022/02/28 10:04:32;;;;;;;3.47;2.15;;;;;;;4.10;50.53;101548.52;1683816;83;21828;-73
2022/02/28 10:07:02;;;;;;;4.20;2.10;;;;;;;4.24;50.59;101545.42;1693950;82;21041;-75
2022/02/28 10:09:30;;;;;;;5.45;2.10;;;;;;;4.36;50.68;101533.25;1700957;82;21037;-73
2022/02/28 10:11:59;;;;;;;5.12;2.33;;;;;;;4.49;49.76;101547.59;1702569;82;21104;-72
2022/02/28 10:14:27;;;;;;;2.87;1.80;;;;;;;4.45;49.39;101550.38;1711972;82;21001;-72
2022/02/28 10:16:58;;;;;;;3.65;2.15;;;;;;;4.39;49.47;101550.12;1735813;82;21844;-72
2022/02/28 10:19:29;;;;;;;3.65;2.00;;;;;;;4.45;49.99;101549.08;1673146;84;21099;-72
2022/02/28 10:22:04;;;;;;;4.60;2.33;;;;;;;4.65;49.99;101547.05;1701682;83;21040;-76
2022/02/28 10:24:36;;;;;;;4.15;2.50;;;;;;;4.86;49.88;101543.65;1711666;82;21006;-76
2022/02/28 10:27:16;;;;;;;3.30;2.00;;;;;;;5.11;49.43;101539.63;1711348;81;20994;-78
2022/02/28 10:30:01;;;;;;;4.95;2.52;;;;;;;5.35;48.47;101541.32;1715726;82;21882;-75
2022/02/28 10:32:50;;;;;;;3.90;2.17;;;;;;;5.52;48.21;101541.98;1690246;83;21068;-78
2022/02/28 10:38:16;;;;;;;4.95;2.22;;;;;;;5.90;47.82;101536.95;1651827;84;20978;-74
2022/02/28 10:40:44;;;;;;;3.22;2.08;;;;;;;6.01;46.00;101534.30;1660288;85;20962;-71
2022/02/28 10:43:24;;;;;;;2.60;1.82;;;;;;;5.87;45.48;101527.42;1699595;82;22171;-77
2022/02/28 10:45:53;;;;;;;3.98;2.15;;;;;;;5.72;46.85;101531.54;1710591;82;22186;-77
2022/02/28 10:48:21;;;;;;;3.35;2.25;;;;;;;5.73;46.58;101525.37;1709374;82;21017;-73
2022/02/28 10:50:53;;;;;;;3.98;1.82;;;;;;;5.82;46.86;101529.39;1660016;84;21555;-74
2022/02/28 10:53:22;;;;;;;3.02;2.00;;;;;;;5.97;45.86;101527.92;1649024;86;21025;-73
2022/02/28 10:55:51;;;;;;;2.30;1.70;;;;;;;5.93;46.13;101522.42;1710154;84;21841;-72
2022/02/28 10:58:24;;;;;;;3.50;2.17;;;;;;;6.03;45.52;101518.50;1702280;82;21073;-76
2022/02/28 11:01:04;;;;;;;2.85;1.90;;;;;;;6.07;45.79;101516.58;1701898;82;21611;-76
2022/02/28 11:03:47;;;;;;;3.25;1.80;;;;;;;6.23;45.15;101517.19;1708724;82;21531;-81
2022/02/28 11:06:22;;;;;;;3.15;1.80;;;;;;;6.34;44.74;101513.24;1675430;84;21438;-75
2022/02/28 11:08:49;;;;;;;3.17;2.02;;;;;;;6.36;45.74;101517.50;1669360;83;21837;-77
2022/02/28 11:11:16;;;;;;;6.03;2.00;;;;;;;6.48;45.32;101511.73;1673038;84;21071;-75
2022/02/28 11:13:45;;;;;;;3.15;1.92;;;;;;;6.62;44.47;101512.42;1670294;84;20965;-74
2022/02/28 11:16:15;;;;;;;2.50;1.98;;;;;;;6.72;44.04;101513.70;1669436;84;21020;-75
2022/02/28 11:18:43;;;;;;;3.02;1.77;;;;;;;6.74;44.29;101507.07;1674611;85;21040;-76
2022/02/28 11:21:12;;;;;;;4.10;1.85;;;;;;;6.85;44.23;101508.31;1704185;82;21821;-74
2022/02/28 11:23:41;;;;;;;3.10;2.40;;;;;;;6.99;43.29;101512.06;1704358;82;21013;-75
2022/02/28 11:26:08;;;;;;;4.97;2.77;;;;;;;6.94;42.89;101510.95;1710960;83;20973;-83
2022/02/28 11:28:35;;;;;;;5.62;2.35;;;;;;;6.85;43.42;101507.42;1709026;83;21192;-76
2022/02/28 11:31:15;;;;;;;3.22;2.20;;;;;;;6.87;43.30;101506.45;1703564;82;21057;-76
2022/02/28 11:34:03;;;;;;;3.25;2.15;;;;;;;6.99;43.61;101501.55;1652450;84;22482;-71
2022/02/28 11:36:54;;;;;;;2.85;1.90;;;;;;;7.15;43.74;101496.83;1711940;82;21068;-74
2022/02/28 11:39:34;;;;;;;3.25;2.25;;;;;;;7.51;43.85;101488.55;1663903;84;21447;-74